Time;durP1;ratioP1;P1;durP2;ratioP2;P2;SDS_P1;SDS_P2;PMS_P1;PMS_P2;Temp;Humidity;BMP_temperature;BMP_pressure;BME280_temperature;BME280_humidity;BME280_pressure;Samples;Min_cycle;Max_cycle;Signal;HPM_P1;HPM_P2
2023/11/22 00:00:14;;;;;;;5.05;3.08;;;;;;;-7.08;59.34;99810.34;5052674;28;20037;-50
2023/11/22 00:02:40;;;;;;;5.07;3.15;;;;;;;-7.06;59.19;99807.75;5050499;28;20371;-51
2023/11/22 00:05:06;;;;;;;8.48;3.45;;;;;;;-7.09;59.44;99802.56;5036472;28;20419;-50
2023/11/22 00:07:35;;;;;;;8.10;2.75;;;;;;;-7.06;60.02;99807.75;5040081;28;20435;-47
2023/11/22 00:10:01;;;;;;;4.78;2.65;;;;;;;-7.06;59.80;99813.81;5053989;28;20519;-54
2023/11/22 00:12:36;;;;;;;6.55;3.33;;;;;;;-7.01;59.26;99815.50;5051715;28;20039;-59
2023/11/22 00:15:04;;;;;;;5.18;2.72;;;;;;;-7.08;59.67;99794.75;5035357;28;20061;-54
2023/11/22 00:17:30;;;;;;;5.38;3.08;;;;;;;-6.95;59.34;99818.06;5048089;28;20037;-55
2023/11/22 00:19:55;;;;;;;5.13;3.05;;;;;;;-6.88;59.28;99806.72;5052120;28;20363;-54
2023/11/22 00:22:21;;;;;;;5.97;2.92;;;;;;;-6.83;58.54;99810.13;5046607;28;20494;-49
2023/11/22 00:24:50;;;;;;;5.03;2.92;;;;;;;-6.83;59.13;99794.50;5033536;28;20033;-54
2023/11/22 00:27:16;;;;;;;4.60;2.85;;;;;;;-6.80;58.88;99804.88;5038381;28;20124;-49
2023/11/22 00:29:41;;;;;;;5.32;2.90;;;;;;;-6.79;58.85;99801.41;5050153;28;20044;-54
2023/11/22 00:32:10;;;;;;;7.70;3.35;;;;;;;-7.06;58.54;99756.53;5049712;28;20064;-54
2023/11/22 00:34:36;;;;;;;6.18;3.17;;;;;;;-6.78;58.60;99792.72;5045459;28;20535;-50
2023/11/22 00:37:02;;;;;;;5.88;3.33;;;;;;;-6.77;58.46;99799.66;5040227;28;20463;-52
2023/11/22 00:39:27;;;;;;;6.15;3.08;;;;;;;-6.82;58.71;99790.19;5051682;28;20059;-52
2023/11/22 00:41:53;;;;;;;5.78;3.30;;;;;;;-6.80;58.84;99794.47;5051431;28;20055;-55
2023/11/22 00:44:18;;;;;;;7.68;3.80;;;;;;;-6.74;58.62;99792.72;5051197;28;20044;-56
2023/11/22 00:46:45;;;;;;;6.30;3.38;;;;;;;-6.71;58.24;99797.88;5051703;28;20033;-51
2023/11/22 00:49:11;;;;;;;7.90;3.78;;;;;;;-6.69;58.08;99796.97;5042046;28;20029;-54
2023/11/22 00:51:36;;;;;;;6.50;4.00;;;;;;;-6.66;58.07;99796.94;5044621;28;20046;-55
2023/11/22 00:54:02;;;;;;;6.68;3.90;;;;;;;-6.87;57.93;99764.19;5033824;28;20029;-52
2023/11/22 00:56:28;;;;;;;7.28;3.70;;;;;;;-6.58;57.70;99802.06;5033476;28;20090;-55
2023/11/22 00:58:54;;;;;;;6.22;3.88;;;;;;;-6.55;57.78;99794.22;5042958;28;20041;-52
2023/11/22 01:01:20;;;;;;;7.57;4.03;;;;;;;-6.63;57.58;99803.84;5050886;28;20036;-52
2023/11/22 01:03:46;;;;;;;10.55;4.40;;;;;;;-6.74;57.92;99787.50;5042904;28;20030;-50
2023/11/22 01:06:13;;;;;;;7.63;4.00;;;;;;;-6.73;58.18;99791.84;5037750;28;20062;-54
2023/11/22 01:08:38;;;;;;;8.77;4.13;;;;;;;-7.01;58.01;99738.28;5043068;28;20098;-52
2023/11/22 01:11:05;;;;;;;6.47;3.92;;;;;;;-6.96;57.92;99739.09;5033277;28;20399;-56
2023/11/22 01:13:32;;;;;;;9.73;3.88;;;;;;;-6.64;58.13;99789.13;5046020;28;20040;-55
2023/11/22 01:15:58;;;;;;;6.90;3.80;;;;;;;-6.70;57.59;99794.41;5049417;28;20040;-50
2023/11/22 01:18:24;;;;;;;6.13;3.70;;;;;;;-6.67;58.01;99795.22;5045919;28;20175;-52
2023/11/22 01:20:50;;;;;;;11.40;4.88;;;;;;;-6.72;58.15;99772.72;5033317;28;20116;-51
2023/11/22 01:23:15;;;;;;;7.32;4.40;;;;;;;-6.94;57.97;99728.69;5041154;28;20029;-50
2023/11/22 01:25:41;;;;;;;9.13;4.07;;;;;;;-6.54;57.59;99784.69;5034905;28;20056;-52
2023/11/22 01:28:07;;;;;;;8.63;4.15;;;;;;;-6.55;57.58;99777.75;5049589;28;20436;-56
2023/11/22 01:30:33;;;;;;;6.65;3.67;;;;;;;-6.57;57.63;99782.94;5037397;28;20029;-53
2023/11/22 01:32:58;;;;;;;6.35;4.05;;;;;;;-6.83;57.42;99733.78;5034938;28;20047;-55
2023/11/22 01:35:24;;;;;;;8.55;3.95;;;;;;;-6.72;57.87;99767.50;5045486;28;20116;-56
2023/11/22 01:37:50;;;;;;;7.47;4.03;;;;;;;-6.61;57.83;99778.66;5033832;28;20033;-47
2023/11/22 01:40:16;;;;;;;7.00;4.18;;;;;;;-6.68;57.76;99771.81;5033861;28;20033;-54
2023/11/22 01:42:42;;;;;;;6.43;3.85;;;;;;;-6.69;57.86;99790.91;5049452;28;20032;-49
2023/11/22 01:45:09;;;;;;;7.95;4.43;;;;;;;-6.66;57.97;99788.28;5052196;28;20094;-52
2023/11/22 01:47:36;;;;;;;9.85;4.30;;;;;;;-6.64;58.24;99796.94;5044102;28;20437;-53
2023/11/22 01:50:06;;;;;;;9.18;3.97;;;;;;;-6.68;58.02;99790.03;5033582;28;20034;-51
2023/11/22 01:52:32;;;;;;;8.32;3.97;;;;;;;-6.81;58.15;99778.88;5035118;28;20034;-52
2023/11/22 01:54:58;;;;;;;6.75;3.63;;;;;;;-6.84;58.68;99784.13;5041834;28;20025;-51
2023/11/22 01:57:24;;;;;;;7.82;3.83;;;;;;;-6.73;58.25;99789.22;5033302;28;20041;-53
2023/11/22 01:59:50;;;;;;;7.10;4.05;;;;;;;-6.70;58.46;99789.19;5047036;28;20033;-54
2023/11/22 02:02:16;;;;;;;7.63;4.20;;;;;;;-6.89;58.49;99752.94;5048738;28;20033;-51
2023/11/22 02:04:41;;;;;;;7.70;3.90;;;;;;;-6.64;58.26;99804.75;5035872;28;20425;-50
2023/11/22 02:07:07;;;;;;;7.25;3.60;;;;;;;-6.64;58.52;99797.78;5032795;28;20107;-53
2023/11/22 02:09:33;;;;;;;7.75;3.55;;;;;;;-6.66;58.25;99794.31;5033507;28;20036;-53
2023/11/22 02:11:59;;;;;;;5.82;3.53;;;;;;;-6.66;57.96;99801.28;5038525;28;20029;-50
2023/11/22 02:14:24;;;;;;;7.30;3.65;;;;;;;-6.67;58.06;99791.75;5032176;28;20044;-54
2023/11/22 02:16:50;;;;;;;6.47;3.80;;;;;;;-6.63;58.12;99796.06;5031875;28;20041;-53
2023/11/22 02:19:17;;;;;;;6.07;3.58;;;;;;;-6.57;57.99;99788.16;5043644;28;20033;-49
2023/11/22 02:21:43;;;;;;;5.13;3.05;;;;;;;-6.58;57.97;99794.25;5050148;28;20025;-53
2023/11/22 02:24:10;;;;;;;7.95;3.35;;;;;;;-6.56;58.15;99787.28;5049809;28;20456;-49
2023/11/22 02:26:36;;;;;;;9.70;3.50;;;;;;;-6.56;57.65;99796.84;5051463;28;20041;-48
2023/11/22 02:29:04;;;;;;;4.80;2.90;;;;;;;-7.01;57.70;99716.59;5051273;28;20044;-47
2023/11/22 02:31:30;;;;;;;7.03;3.42;;;;;;;-6.77;57.93;99755.38;5036569;28;20030;-47
2023/11/22 02:33:55;;;;;;;6.55;3.80;;;;;;;-6.58;58.06;99788.19;5037437;28;20037;-48
2023/11/22 02:36:22;;;;;;;4.35;2.58;;;;;;;-6.55;57.83;99803.78;5052850;28;20039;-52
2023/11/22 02:38:48;;;;;;;5.15;2.95;;;;;;;-6.56;57.93;99792.50;5050304;28;20091;-47
2023/11/22 02:41:13;;;;;;;6.43;3.30;;;;;;;-6.61;58.01;99796.91;5050468;28;20028;-46
2023/11/22 02:43:41;;;;;;;6.95;2.80;;;;;;;-6.55;57.76;99794.22;5035546;28;20037;-47
2023/11/22 02:46:08;;;;;;;7.38;3.08;;;;;;;-6.59;57.70;99776.91;5036507;28;20033;-52
2023/11/22 02:48:34;;;;;;;7.65;3.03;;;;;;;-6.54;57.76;99795.94;5043032;28;20123;-54
2023/11/22 02:50:59;;;;;;;6.65;3.22;;;;;;;-6.60;57.36;99803.81;5053704;28;20112;-52
2023/11/22 02:53:26;;;;;;;6.25;2.80;;;;;;;-6.67;57.44;99804.78;5048816;28;20064;-51
2023/11/22 02:55:51;;;;;;;7.72;3.67;;;;;;;-6.71;57.94;99803.09;5040626;28;20088;-53
2023/11/22 02:58:17;;;;;;;5.65;2.80;;;;;;;-6.75;58.23;99804.84;5042849;28;20412;-54
2023/11/22 03:00:43;;;;;;;3.92;2.67;;;;;;;-6.71;58.17;99810.91;5047832;28;20024;-53
2023/11/22 03:03:10;;;;;;;6.75;3.03;;;;;;;-7.04;57.73;99750.47;5052758;28;20042;-57
2023/11/22 03:05:39;;;;;;;8.05;3.40;;;;;;;-6.80;58.26;99788.41;5036356;28;20121;-51
2023/11/22 03:08:07;;;;;;;8.50;3.13;;;;;;;-6.67;58.04;99802.19;5036049;28;20033;-55
2023/11/22 03:10:33;;;;;;;5.32;3.13;;;;;;;-6.63;57.49;99809.06;5035813;28;20475;-50
2023/11/22 03:12:59;;;;;;;7.10;3.60;;;;;;;-6.64;57.31;99805.59;5047141;28;20584;-52
2023/11/22 03:15:25;;;;;;;5.60;3.15;;;;;;;-6.58;57.39;99815.09;5050596;28;20454;-50
2023/11/22 03:17:51;;;;;;;8.15;3.50;;;;;;;-6.63;57.63;99791.72;5052012;28;20025;-51
2023/11/22 03:20:16;;;;;;;6.57;3.50;;;;;;;-6.52;57.33;99807.19;5048285;28;20364;-46
2023/11/22 03:22:45;;;;;;;7.32;3.10;;;;;;;-6.55;57.25;99804.63;5052479;28;20025;-47
2023/11/22 03:25:11;;;;;;;8.35;3.30;;;;;;;-6.56;57.33;99789.88;5049115;28;20135;-51
2023/11/22 03:27:38;;;;;;;6.10;3.00;;;;;;;-6.57;56.72;99808.16;5036041;28;20034;-46
2023/11/22 03:30:06;;;;;;;6.10;3.13;;;;;;;-6.64;57.49;99800.38;5036256;28;20474;-46
2023/11/22 03:32:36;;;;;;;4.38;2.78;;;;;;;-6.59;57.28;99808.16;5050339;28;20491;-47
2023/11/22 03:35:04;;;;;;;4.85;3.03;;;;;;;-6.87;57.23;99755.50;5054548;28;20025;-47
2023/11/22 03:37:30;;;;;;;5.70;3.05;;;;;;;-6.59;57.17;99805.56;5050694;28;20456;-50
2023/11/22 03:39:55;;;;;;;6.63;3.38;;;;;;;-6.59;57.43;99807.31;5041745;28;20028;-50
2023/11/22 03:42:21;;;;;;;7.78;3.05;;;;;;;-6.60;57.28;99806.44;5052717;28;20049;-53
2023/11/22 03:44:47;;;;;;;3.50;2.60;;;;;;;-6.58;57.32;99798.63;5039061;28;20093;-51
2023/11/22 03:47:16;;;;;;;6.00;3.03;;;;;;;-6.55;57.27;99807.22;5034242;28;20056;-53
2023/11/22 03:49:42;;;;;;;6.68;3.40;;;;;;;-6.61;57.53;99796.91;5050452;28;20025;-55
2023/11/22 03:52:10;;;;;;;6.72;3.70;;;;;;;-6.56;56.99;99808.13;5052358;28;20088;-50
2023/11/22 03:54:37;;;;;;;4.93;3.17;;;;;;;-6.61;56.79;99815.13;5037147;28;20060;-48
2023/11/22 03:57:03;;;;;;;7.15;3.30;;;;;;;-6.62;56.77;99831.63;5036119;28;20372;-48
2023/11/22 03:59:29;;;;;;;5.97;3.30;;;;;;;-6.69;57.44;99820.41;5039130;28;20442;-50
2023/11/22 04:01:55;;;;;;;9.05;3.22;;;;;;;-6.58;57.26;99822.91;5040801;28;20104;-49
2023/11/22 04:04:21;;;;;;;7.85;3.22;;;;;;;-6.54;56.92;99819.38;5038874;28;20083;-51
2023/11/22 04:06:46;;;;;;;7.15;3.75;;;;;;;-6.49;56.86;99824.56;5053781;28;20748;-52
2023/11/22 04:09:12;;;;;;;7.13;3.53;;;;;;;-6.61;57.00;99802.09;5052713;28;20043;-54
2023/11/22 04:11:39;;;;;;;7.65;3.22;;;;;;;-6.57;56.79;99822.03;5051940;28;20041;-50
2023/11/22 04:14:05;;;;;;;8.15;4.03;;;;;;;-6.63;57.12;99820.38;5041078;28;20039;-50
2023/11/22 04:16:30;;;;;;;8.02;3.55;;;;;;;-6.99;57.30;99761.69;5034813;28;20037;-54
2023/11/22 04:18:57;;;;;;;5.35;2.95;;;;;;;-6.62;57.07;99823.81;5042838;28;20125;-54
2023/11/22 04:21:22;;;;;;;6.70;3.95;;;;;;;-6.60;57.32;99831.63;5041501;28;20121;-53
2023/11/22 04:23:48;;;;;;;5.43;3.17;;;;;;;-6.63;57.12;99822.09;5042968;28;20037;-54
2023/11/22 04:26:14;;;;;;;6.78;3.47;;;;;;;-6.59;57.56;99829.00;5052103;28;20068;-58
2023/11/22 04:28:39;;;;;;;5.43;3.13;;;;;;;-6.58;57.56;99817.69;5044961;28;20040;-47
2023/11/22 04:31:05;;;;;;;8.90;4.28;;;;;;;-6.64;57.01;99807.34;5037129;28;20040;-50
2023/11/22 04:33:31;;;;;;;6.75;3.38;;;;;;;-6.71;57.55;99790.91;5050834;28;20037;-51
2023/11/22 04:35:56;;;;;;;9.07;4.18;;;;;;;-6.57;57.18;99826.38;5037562;28;20408;-50
2023/11/22 04:38:22;;;;;;;6.78;3.35;;;;;;;-6.57;57.16;99829.00;5047872;28;20035;-51
2023/11/22 04:40:48;;;;;;;8.18;3.47;;;;;;;-6.62;57.24;99823.81;5051205;28;20078;-52
2023/11/22 04:43:14;;;;;;;6.38;3.70;;;;;;;-6.70;57.38;99816.06;5034014;28;20048;-47
2023/11/22 04:45:39;;;;;;;7.10;3.58;;;;;;;-6.72;57.54;99814.38;5034989;28;20417;-48
2023/11/22 04:48:09;;;;;;;6.95;3.13;;;;;;;-6.69;57.47;99822.16;5049815;28;20036;-48
2023/11/22 04:50:35;;;;;;;5.65;3.00;;;;;;;-6.61;57.56;99828.16;5048695;28;20092;-49
2023/11/22 04:53:03;;;;;;;5.30;3.33;;;;;;;-6.59;57.91;99829.00;5034094;28;20037;-47
2023/11/22 04:55:29;;;;;;;6.97;3.38;;;;;;;-6.61;57.23;99829.91;5034630;28;20108;-45
2023/11/22 04:57:55;;;;;;;5.78;3.00;;;;;;;-6.63;57.99;99833.38;5050056;28;20524;-55
2023/11/22 05:00:24;;;;;;;8.02;3.08;;;;;;;-6.60;58.02;99826.41;5050775;28;20075;-49
2023/11/22 05:02:50;;;;;;;5.85;2.95;;;;;;;-6.57;57.44;99837.66;5049004;28;20052;-52
2023/11/22 05:05:16;;;;;;;6.00;3.17;;;;;;;-6.61;57.70;99841.16;5042009;28;20432;-59
2023/11/22 05:07:42;;;;;;;6.88;3.45;;;;;;;-6.61;57.51;99850.75;5048462;28;20030;-50
2023/11/22 05:10:10;;;;;;;5.53;2.85;;;;;;;-6.57;57.70;99840.25;5050258;28;20029;-48
2023/11/22 05:12:36;;;;;;;4.80;2.80;;;;;;;-6.51;57.91;99853.22;5039785;28;20523;-52
2023/11/22 05:15:03;;;;;;;7.03;3.13;;;;;;;-6.47;57.44;99856.66;5038942;28;20029;-53
2023/11/22 05:17:32;;;;;;;6.05;2.85;;;;;;;-6.53;57.41;99860.16;5050168;28;20089;-50
2023/11/22 05:19:58;;;;;;;5.55;2.97;;;;;;;-6.63;57.72;99838.59;5037913;28;20396;-51
2023/11/22 05:22:23;;;;;;;6.53;2.85;;;;;;;-6.62;57.59;99844.66;5046592;28;20120;-56
2023/11/22 05:24:49;;;;;;;8.23;3.10;;;;;;;-6.62;57.46;99855.06;5051447;28;20070;-55
2023/11/22 05:27:15;;;;;;;5.53;2.90;;;;;;;-6.94;57.22;99810.22;5045770;28;20033;-58
2023/11/22 05:29:41;;;;;;;4.95;2.83;;;;;;;-6.69;57.37;99856.00;5033665;28;20032;-54
2023/11/22 05:32:06;;;;;;;5.70;2.53;;;;;;;-6.87;57.49;99821.44;5046256;28;20629;-59
2023/11/22 05:34:32;;;;;;;6.57;2.75;;;;;;;-6.71;57.30;99848.19;5035581;28;20086;-55
2023/11/22 05:36:58;;;;;;;5.80;2.72;;;;;;;-6.73;57.17;99846.50;5042563;28;20044;-55
2023/11/22 05:39:24;;;;;;;4.55;2.22;;;;;;;-6.83;57.01;99833.56;5038073;28;20120;-58
2023/11/22 05:41:53;;;;;;;8.38;2.83;;;;;;;-6.88;56.80;99824.06;5031873;28;20087;-53
2023/11/22 05:44:19;;;;;;;6.93;2.72;;;;;;;-6.67;56.92;99855.09;5046401;28;20414;-54
2023/11/22 05:46:45;;;;;;;5.68;2.65;;;;;;;-6.63;56.88;99856.81;5051999;28;20029;-56
2023/11/22 05:49:11;;;;;;;4.53;2.40;;;;;;;-6.66;56.57;99861.19;5047822;28;20068;-59
2023/11/22 05:51:37;;;;;;;10.60;2.60;;;;;;;-6.64;57.02;99859.44;5051084;28;20044;-55
2023/11/22 05:54:04;;;;;;;5.57;2.90;;;;;;;-6.68;56.63;99861.19;5039960;28;20033;-52
2023/11/22 05:56:29;;;;;;;4.10;2.28;;;;;;;-6.74;56.69;99857.81;5031353;28;20037;-52
2023/11/22 05:58:55;;;;;;;3.40;2.00;;;;;;;-6.83;56.56;99862.19;5039466;28;20041;-55
2023/11/22 06:01:21;;;;;;;4.55;1.85;;;;;;;-6.84;56.97;99864.81;5051956;28;20040;-54
2023/11/22 06:03:48;;;;;;;3.25;2.00;;;;;;;-6.87;56.32;99865.72;5048065;28;20037;-53
2023/11/22 06:06:14;;;;;;;3.13;1.77;;;;;;;-6.99;56.55;99865.78;5035479;28;20117;-54
2023/11/22 06:08:39;;;;;;;2.78;1.70;;;;;;;-7.08;56.82;99869.34;5044551;28;20108;-51
2023/11/22 06:11:05;;;;;;;3.80;1.70;;;;;;;-7.13;57.19;99872.00;5037891;28;20437;-56
2023/11/22 06:13:31;;;;;;;3.72;1.95;;;;;;;-7.48;56.92;99809.81;5049830;28;20055;-56
2023/11/22 06:15:57;;;;;;;6.55;2.78;;;;;;;-7.09;57.26;99867.63;5045487;28;20376;-54
2023/11/22 06:18:28;;;;;;;5.25;2.28;;;;;;;-7.00;56.67;99875.34;5036161;28;20040;-67
2023/11/22 06:20:54;;;;;;;6.20;1.80;;;;;;;-6.91;56.62;99877.03;5046384;28;20432;-54
2023/11/22 06:23:20;;;;;;;5.45;2.08;;;;;;;-6.83;56.55;99872.59;5054243;28;20021;-53
2023/11/22 06:25:45;;;;;;;3.95;2.30;;;;;;;-6.72;56.70;99869.06;5055415;28;20324;-54
2023/11/22 06:28:12;;;;;;;2.63;1.50;;;;;;;-6.64;56.41;99872.44;5051857;28;20034;-53
2023/11/22 06:30:37;;;;;;;4.45;1.73;;;;;;;-6.69;56.08;99858.63;5053571;28;20033;-52
2023/11/22 06:33:03;;;;;;;2.70;1.33;;;;;;;-6.64;55.82;99864.63;5054246;28;20039;-53
2023/11/22 06:35:29;;;;;;;3.22;1.65;;;;;;;-6.58;55.87;99880.19;5051445;28;20135;-54
2023/11/22 06:37:54;;;;;;;1.85;1.40;;;;;;;-6.58;55.35;99881.97;5036332;28;20096;-57
2023/11/22 06:40:20;;;;;;;3.13;1.40;;;;;;;-6.72;55.33;99879.47;5055157;28;20029;-53
2023/11/22 06:42:46;;;;;;;3.55;1.40;;;;;;;-6.81;55.80;99888.22;5039976;28;20424;-57
2023/11/22 06:45:16;;;;;;;2.65;1.35;;;;;;;-6.87;56.00;99886.53;5035411;28;20043;-55
2023/11/22 06:47:44;;;;;;;1.65;1.27;;;;;;;-7.15;56.04;99826.03;5044459;28;20033;-54
2023/11/22 06:50:11;;;;;;;2.25;1.45;;;;;;;-6.82;56.17;99870.88;5048111;28;20087;-52
2023/11/22 06:52:41;;;;;;;2.10;1.60;;;;;;;-6.99;55.78;99843.25;5043727;28;20036;-54
2023/11/22 06:55:08;;;;;;;2.97;1.95;;;;;;;-6.74;55.73;99892.50;5041236;28;20056;-53
2023/11/22 06:57:37;;;;;;;4.95;1.75;;;;;;;-6.76;55.61;99886.44;5049104;28;20439;-55
2023/11/22 07:00:09;;;;;;;3.30;1.88;;;;;;;-6.67;55.69;99888.94;5036893;28;20029;-53
2023/11/22 07:02:35;;;;;;;2.30;1.60;;;;;;;-6.66;55.25;99893.28;5036807;28;20091;-56
2023/11/22 07:05:08;;;;;;;3.95;1.40;;;;;;;-6.77;55.16;99882.13;5052717;28;20060;-54
2023/11/22 07:07:38;;;;;;;3.72;2.30;;;;;;;-6.67;55.21;99894.16;5053061;28;20025;-57
2023/11/22 07:10:05;;;;;;;3.60;2.20;;;;;;;-6.50;55.67;99900.97;5034695;28;20029;-58
2023/11/22 07:12:34;;;;;;;2.83;2.00;;;;;;;-6.00;55.11;99895.22;5038253;28;20046;-56
2023/11/22 07:15:00;;;;;;;3.85;1.80;;;;;;;-5.28;53.80;99863.84;5041929;28;20500;-55
2023/11/22 07:17:28;;;;;;;3.55;1.95;;;;;;;-3.87;51.60;99879.66;5035561;28;20419;-56
2023/11/22 07:19:54;;;;;;;3.10;1.90;;;;;;;-2.21;47.60;99878.38;5035268;28;20441;-50
2023/11/22 07:22:22;;;;;;;5.78;2.00;;;;;;;-1.55;45.98;99881.81;5035737;28;20056;-53
2023/11/22 07:24:51;;;;;;;4.57;1.88;;;;;;;-1.48;45.42;99892.09;5052724;28;20075;-53
2023/11/22 07:27:18;;;;;;;1.63;1.50;;;;;;;-1.56;44.63;99893.22;5051748;28;20041;-53
2023/11/22 07:29:45;;;;;;;2.22;1.38;;;;;;;-1.72;44.45;99896.28;5052640;28;20886;-58
2023/11/22 07:32:11;;;;;;;3.15;1.58;;;;;;;-1.83;44.81;99890.50;5053967;28;20121;-55
2023/11/22 07:34:40;;;;;;;3.67;1.75;;;;;;;-1.85;44.34;99892.31;5039432;28;20104;-56
2023/11/22 07:37:07;;;;;;;2.13;1.40;;;;;;;-1.88;44.46;99895.88;5033129;28;20097;-53
2023/11/22 07:39:35;;;;;;;3.70;1.70;;;;;;;-2.03;44.19;99903.28;5037892;28;20036;-59
2023/11/22 07:42:01;;;;;;;8.05;2.70;;;;;;;-2.18;44.40;99894.03;5034510;28;20136;-56
2023/11/22 07:44:27;;;;;;;6.15;2.63;;;;;;;-2.37;44.91;99898.06;5035209;28;20037;-53
2023/11/22 07:46:53;;;;;;;3.72;2.25;;;;;;;-2.61;45.12;99903.03;5035308;28;20423;-53
2023/11/22 07:49:21;;;;;;;3.35;1.70;;;;;;;-3.05;46.37;99890.97;5041875;28;20098;-56
2023/11/22 07:51:47;;;;;;;2.20;1.45;;;;;;;-3.58;46.07;99885.19;5044843;28;20036;-53
2023/11/22 07:54:15;;;;;;;1.70;1.30;;;;;;;-3.85;46.91;99918.91;5038378;28;20021;-59
2023/11/22 07:56:44;;;;;;;4.85;2.30;;;;;;;-4.05;47.47;99904.44;5050974;28;20041;-56
2023/11/22 07:59:13;;;;;;;4.97;2.20;;;;;;;-4.12;48.09;99916.78;5050781;28;20034;-58
2023/11/22 08:01:43;;;;;;;5.05;2.70;;;;;;;-4.12;48.28;99903.69;5034837;28;20350;-57
2023/11/22 08:04:09;;;;;;;3.38;1.85;;;;;;;-4.24;47.48;99907.41;5039829;28;20086;-56
2023/11/22 08:06:35;;;;;;;5.05;2.63;;;;;;;-4.33;47.73;99891.91;5051607;28;20033;-60
2023/11/22 08:09:04;;;;;;;7.03;2.53;;;;;;;-4.34;47.90;99900.59;5044493;28;20420;-55
2023/11/22 08:11:31;;;;;;;6.40;2.60;;;;;;;-4.37;47.72;99904.16;5033629;28;20029;-56
2023/11/22 08:13:59;;;;;;;4.60;2.47;;;;;;;-4.71;47.92;99875.13;5043828;28;20037;-56
2023/11/22 08:16:27;;;;;;;9.07;2.47;;;;;;;-4.63;48.07;99905.47;5053723;28;20040;-57
2023/11/22 08:18:53;;;;;;;3.60;2.00;;;;;;;-4.76;48.44;99904.81;5045915;28;20033;-54
2023/11/22 08:21:19;;;;;;;5.70;3.00;;;;;;;-4.76;48.65;99903.94;5050958;28;20033;-57
2023/11/22 08:23:48;;;;;;;6.90;2.80;;;;;;;-4.72;48.38;99889.94;5048259;28;20380;-57
2023/11/22 08:26:15;;;;;;;5.35;1.92;;;;;;;-4.62;48.43;99891.50;5053361;28;20131;-56
2023/11/22 08:28:41;;;;;;;5.10;2.13;;;;;;;-4.62;47.91;99896.75;5044512;28;20048;-55
2023/11/22 08:31:10;;;;;;;9.40;3.78;;;;;;;-4.83;48.20;99865.75;5034444;28;20115;-57
2023/11/22 08:33:37;;;;;;;8.93;3.42;;;;;;;-4.85;48.51;99877.97;5035824;28;20039;-61
2023/11/22 08:36:07;;;;;;;8.48;3.70;;;;;;;-4.84;48.40;99888.38;5046232;28;20448;-58
2023/11/22 08:38:34;;;;;;;7.60;3.08;;;;;;;-4.71;48.85;99881.19;5051718;28;20029;-58
2023/11/22 08:41:06;;;;;;;8.73;4.20;;;;;;;-4.56;48.38;99890.56;5051165;28;20364;-57
2023/11/22 08:43:32;;;;;;;11.45;5.10;;;;;;;-4.57;48.18;99881.00;5052520;28;20037;-57
2023/11/22 08:45:59;;;;;;;11.93;5.40;;;;;;;-4.78;48.57;99880.47;5052634;28;20043;-57
2023/11/22 08:48:25;;;;;;;10.70;4.97;;;;;;;-4.68;49.40;99881.19;5035385;28;20345;-54
2023/11/22 08:50:53;;;;;;;7.00;3.22;;;;;;;-4.47;48.84;99886.88;5048972;28;20047;-56
2023/11/22 08:53:20;;;;;;;5.18;2.92;;;;;;;-4.52;47.85;99892.22;5051790;28;20040;-57
2023/11/22 08:55:46;;;;;;;6.95;3.50;;;;;;;-4.70;48.07;99882.06;5051711;28;20393;-56
2023/11/22 08:58:13;;;;;;;9.05;4.22;;;;;;;-4.91;48.83;99873.72;5046416;28;20029;-57
2023/11/22 09:00:39;;;;;;;9.80;4.70;;;;;;;-4.89;49.66;99892.81;5051797;28;20037;-52
2023/11/22 09:03:04;;;;;;;10.40;5.22;;;;;;;-4.70;49.20;99882.97;5051615;28;20325;-57
2023/11/22 09:05:30;;;;;;;6.72;3.55;;;;;;;-4.55;48.86;99853.09;5048214;28;20105;-59
2023/11/22 09:07:56;;;;;;;16.08;6.93;;;;;;;-4.03;48.02;99886.97;5050722;28;20052;-59
2023/11/22 09:10:21;;;;;;;11.80;5.53;;;;;;;-3.55;47.88;99870.28;5051969;28;20064;-56
2023/11/22 09:12:47;;;;;;;10.18;5.68;;;;;;;-3.30;47.11;99840.06;5047537;28;20371;-57
2023/11/22 09:15:16;;;;;;;8.43;3.88;;;;;;;-3.07;45.88;99824.69;5052201;28;20032;-58
2023/11/22 09:17:46;;;;;;;6.30;3.25;;;;;;;-2.90;45.52;99818.13;5051771;28;20040;-56
2023/11/22 09:20:16;;;;;;;10.30;4.40;;;;;;;-2.58;44.33;99871.50;5050335;28;20037;-58
2023/11/22 09:22:49;;;;;;;4.47;2.65;;;;;;;-2.87;45.67;99865.25;5051581;28;20135;-56
2023/11/22 09:25:28;;;;;;;6.40;2.75;;;;;;;-3.25;46.00;99878.34;5051788;28;20041;-59
2023/11/22 09:27:55;;;;;;;4.93;2.65;;;;;;;-3.49;46.60;99877.13;5037222;28;20108;-59
2023/11/22 09:30:41;;;;;;;4.57;2.78;;;;;;;-3.57;47.33;99872.06;5032261;28;20033;-53
2023/11/22 09:33:10;;;;;;;7.80;3.40;;;;;;;-3.61;46.56;99880.88;5031458;28;20033;-57
2023/11/22 09:35:37;;;;;;;6.65;2.60;;;;;;;-3.74;47.17;99869.81;5043393;28;20029;-55
2023/11/22 09:38:14;;;;;;;4.43;2.63;;;;;;;-3.84;47.82;99865.69;5051753;28;20040;-53
2023/11/22 09:40:48;;;;;;;4.18;2.72;;;;;;;-4.00;46.70;99884.28;5051719;28;20039;-56
2023/11/22 09:43:20;;;;;;;3.67;2.50;;;;;;;-4.17;47.38;99882.00;5046336;28;20026;-50
2023/11/22 09:45:50;;;;;;;5.07;2.25;;;;;;;-4.14;48.12;99889.78;5052040;28;20454;-51
2023/11/22 09:48:20;;;;;;;4.45;2.20;;;;;;;-4.07;47.49;99887.94;5051662;28;20021;-51
2023/11/22 09:51:01;;;;;;;4.85;1.95;;;;;;;-3.99;47.51;99886.00;5047902;28;20037;-56
2023/11/22 09:53:53;;;;;;;2.65;1.75;;;;;;;-4.05;47.58;99888.75;5032375;28;20122;-52
2023/11/22 09:56:20;;;;;;;3.17;1.83;;;;;;;-4.17;48.42;99887.25;5031909;28;20087;-55
2023/11/22 09:58:47;;;;;;;5.95;1.65;;;;;;;-4.22;47.69;99875.97;5032073;28;20048;-50
2023/11/22 10:01:13;;;;;;;4.53;2.10;;;;;;;-4.14;47.94;99881.94;5032434;28;20033;-53
2023/11/22 10:03:40;;;;;;;3.50;1.80;;;;;;;-4.07;47.97;99883.53;5032020;28;20030;-53
2023/11/22 10:06:06;;;;;;;4.18;1.90;;;;;;;-4.06;48.45;99885.25;5040985;28;20021;-57
2023/11/22 10:08:33;;;;;;;3.45;2.05;;;;;;;-4.00;47.42;99886.03;5051571;28;20028;-53
2023/11/22 10:10:59;;;;;;;5.85;2.30;;;;;;;-4.06;47.96;99866.13;5050737;28;20037;-50
2023/11/22 10:13:25;;;;;;;5.45;2.63;;;;;;;-4.37;48.25;99827.47;5051651;28;20037;-56
2023/11/22 10:15:52;;;;;;;4.30;2.33;;;;;;;-4.03;48.27;99873.88;5051617;28;20351;-53
2023/11/22 10:18:21;;;;;;;3.95;2.10;;;;;;;-4.49;48.50;99781.53;5051304;28;20036;-56
2023/11/22 10:20:49;;;;;;;3.95;2.08;;;;;;;-3.94;48.49;99873.69;5037617;28;20033;-59
2023/11/22 10:23:24;;;;;;;5.18;2.67;;;;;;;-3.85;48.36;99883.13;5042195;28;20029;-55
2023/11/22 10:25:52;;;;;;;6.32;2.88;;;;;;;-3.98;48.13;99879.88;5041893;28;20049;-57
2023/11/22 10:28:25;;;;;;;8.02;3.33;;;;;;;-4.07;48.62;99883.53;5040389;28;20099;-57
2023/11/22 10:30:54;;;;;;;5.32;2.97;;;;;;;-4.04;49.05;99878.25;5042545;28;20094;-53
2023/11/22 10:33:23;;;;;;;9.05;2.85;;;;;;;-3.86;48.26;99876.16;5049243;28;20056;-55
2023/11/22 10:35:51;;;;;;;3.40;2.25;;;;;;;-3.71;48.07;99882.81;5050314;28;20086;-55
2023/11/22 10:38:18;;;;;;;6.50;2.80;;;;;;;-3.61;48.47;99873.91;5047203;28;20448;-54
2023/11/22 10:40:45;;;;;;;7.70;2.40;;;;;;;-3.57;48.03;99872.06;5031312;28;20038;-56
2023/11/22 10:43:12;;;;;;;3.97;2.35;;;;;;;-3.64;48.17;99876.56;5043416;28;20033;-54
2023/11/22 10:45:38;;;;;;;8.20;2.30;;;;;;;-3.77;48.22;99881.19;5049911;28;20181;-51
2023/11/22 10:48:05;;;;;;;4.32;2.17;;;;;;;-3.86;48.57;99870.06;5047794;28;20060;-57
2023/11/22 10:50:32;;;;;;;7.20;3.45;;;;;;;-3.87;48.99;99863.09;5055243;28;20040;-58
2023/11/22 10:53:00;;;;;;;4.90;2.50;;;;;;;-3.73;48.28;99868.06;5050197;28;20031;-62
2023/11/22 10:55:32;;;;;;;3.97;2.17;;;;;;;-3.74;48.07;99869.81;5051743;28;20079;-60
2023/11/22 10:58:03;;;;;;;5.85;2.60;;;;;;;-3.80;48.43;99867.34;5054161;28;20037;-59
2023/11/22 11:00:32;;;;;;;4.68;2.42;;;;;;;-3.85;48.80;99879.66;5055376;28;20037;-56
2023/11/22 11:03:09;;;;;;;4.32;2.58;;;;;;;-3.88;49.22;99872.72;5055129;28;20117;-57
2023/11/22 11:05:38;;;;;;;8.27;2.95;;;;;;;-3.87;48.80;99870.94;5053880;28;20029;-55
2023/11/22 11:08:10;;;;;;;3.80;2.42;;;;;;;-3.89;48.98;99871.00;5054423;28;20367;-52
2023/11/22 11:10:41;;;;;;;4.38;2.20;;;;;;;-3.97;48.44;99859.84;5054807;28;20458;-57
2023/11/22 11:13:11;;;;;;;5.85;2.35;;;;;;;-4.26;48.82;99872.59;5053835;28;20123;-55
2023/11/22 11:15:39;;;;;;;4.72;2.95;;;;;;;-4.44;49.15;99872.91;5053938;28;20115;-52
2023/11/22 11:18:10;;;;;;;6.80;3.20;;;;;;;-4.54;49.51;99867.00;5054874;28;20171;-52
2023/11/22 11:20:51;;;;;;;6.85;3.63;;;;;;;-4.74;50.28;99855.13;5055104;28;20367;-58
2023/11/22 11:23:19;;;;;;;8.48;4.15;;;;;;;-4.73;50.49;99861.22;5054926;28;20021;-55
2023/11/22 11:25:50;;;;;;;11.95;5.13;;;;;;;-4.88;50.44;99862.34;5054708;28;20533;-56
2023/11/22 11:28:16;;;;;;;9.35;3.88;;;;;;;-4.82;50.81;99870.97;5054665;28;20037;-57
2023/11/22 11:30:46;;;;;;;7.85;3.72;;;;;;;-4.89;51.35;99871.94;5054746;28;20115;-58
2023/11/22 11:33:15;;;;;;;7.40;3.50;;;;;;;-4.92;51.46;99871.97;5054776;28;20444;-55